| time (UTC) | temp F | wind direction | speed MPH | gust MPH | rain 1hr in | rain 24hr in | rain mn in | humidity % | barometer mb |
| 20260906210016 | 70 | 0 | 3.0 | 9.0 | 0.00 | 0.00 | 0.00 | 67 | 1019.4 |
| 20260906205516 | 70 | 0 | 4.0 | 9.0 | 0.00 | 0.00 | 0.00 | 65 | 1019.4 |
| 20260906205036 | 70 | 0 | 2.0 | 6.0 | 0.00 | 0.00 | 0.00 | 65 | 1019.4 |
| 20260906204536 | 70 | 0 | 3.0 | 8.0 | 0.00 | 0.00 | 0.00 | 64 | 1019.3 |
| 20260906204016 | 71 | 0 | 3.0 | 6.0 | 0.00 | 0.00 | 0.00 | 64 | 1019.4 |
| 20260906203516 | 71 | 0 | 2.0 | 6.0 | 0.00 | 0.00 | 0.00 | 65 | 1019.3 |
| 20260906203036 | 70 | 0 | 3.0 | 8.0 | 0.00 | 0.00 | 0.00 | 62 | 1019.3 |
| 20260906202536 | 70 | 0 | 4.0 | 12.0 | 0.00 | 0.00 | 0.00 | 66 | 1019.4 |
| 20260906202016 | 70 | 0 | 3.0 | 6.0 | 0.00 | 0.00 | 0.00 | 67 | 1019.2 |
| 20260906201516 | 70 | 0 | 4.0 | 9.0 | 0.00 | 0.00 | 0.00 | 68 | 1019.3 |
| 20260906201016 | 70 | 0 | 5.0 | 11.0 | 0.00 | 0.00 | 0.00 | 68 | 1019.3 |
| 20260906200516 | 71 | 0 | 4.0 | 8.0 | 0.00 | 0.00 | 0.00 | 67 | 1019.4 |
| 20260906200016 | 71 | 0 | 4.0 | 10.0 | 0.00 | 0.00 | 0.00 | 68 | 1019.4 |
| 20260906195516 | 71 | 0 | 5.0 | 9.0 | 0.00 | 0.00 | 0.00 | 67 | 1019.4 |
| 20260906195016 | 71 | 0 | 3.0 | 10.0 | 0.00 | 0.00 | 0.00 | 68 | 1019.4 |
| 20260906194516 | 71 | 0 | 5.0 | 11.0 | 0.00 | 0.00 | 0.00 | 70 | 1019.5 |
| 20260906194016 | 71 | 0 | 3.0 | 8.0 | 0.00 | 0.00 | 0.00 | 68 | 1019.5 |
| 20260906193536 | 71 | 0 | 4.0 | 15.0 | 0.00 | 0.00 | 0.00 | 68 | 1019.5 |
| 20260906193017 | 71 | 0 | 6.0 | 15.0 | 0.00 | 0.00 | 0.00 | 70 | 1019.4 |
| 20260906192516 | 70 | 0 | 5.0 | 11.0 | 0.00 | 0.00 | 0.00 | 68 | 1019.2 |
| 20260906192016 | 70 | 0 | 3.0 | 9.0 | 0.00 | 0.00 | 0.00 | 68 | 1019.2 |
| 20260906191516 | 70 | 0 | 5.0 | 12.0 | 0.00 | 0.00 | 0.00 | 66 | 1019.3 |
| 20260906191016 | 71 | 0 | 4.0 | 11.0 | 0.00 | 0.00 | 0.00 | 67 | 1019.3 |
| 20260906190516 | 71 | 0 | 3.0 | 10.0 | 0.00 | 0.00 | 0.00 | 67 | 1019.3 |
| 20260906190016 | 71 | 0 | 4.0 | 12.0 | 0.00 | 0.00 | 0.00 | 69 | 1019.2 |
| 20260906185516 | 71 | 0 | 5.0 | 10.0 | 0.00 | 0.00 | 0.00 | 69 | 1019.2 |
| 20260906185016 | 71 | 0 | 3.0 | 7.0 | 0.00 | 0.00 | 0.00 | 72 | 1019.3 |
| 20260906184516 | 70 | 0 | 5.0 | 12.0 | 0.00 | 0.00 | 0.00 | 72 | 1019.3 |
| 20260906184036 | 70 | 0 | 6.0 | 12.0 | 0.00 | 0.00 | 0.00 | 72 | 1019.3 |
| 20260906183516 | 70 | 0 | 4.0 | 10.0 | 0.00 | 0.00 | 0.00 | 71 | 1019.3 |
| 20260906183016 | 70 | 0 | 4.0 | 11.0 | 0.00 | 0.00 | 0.00 | 71 | 1019.4 |
| 20260906182516 | 69 | 0 | 4.0 | 10.0 | 0.00 | 0.00 | 0.00 | 68 | 1019.3 |
| 20260906182036 | 70 | 0 | 4.0 | 13.0 | 0.00 | 0.00 | 0.00 | 71 | 1019.4 |
| 20260906181516 | 69 | 0 | 3.0 | 6.0 | 0.00 | 0.00 | 0.00 | 71 | 1019.4 |
| 20260906181016 | 69 | 0 | 3.0 | 6.0 | 0.00 | 0.00 | 0.00 | 74 | 1019.5 |
| 20260906180516 | 69 | 0 | 3.0 | 9.0 | 0.00 | 0.00 | 0.00 | 71 | 1019.3 |
| 20260906180016 | 70 | 0 | 3.0 | 10.0 | 0.00 | 0.00 | 0.00 | 71 | 1019.3 |
| 20260906175516 | 70 | 68 | 4.0 | 11.0 | 0.00 | 0.00 | 0.00 | 70 | 1019.3 |
| 20260906175016 | 70 | 0 | 4.0 | 8.0 | 0.00 | 0.00 | 0.00 | 67 | 1019.3 |
| 20260906174516 | 70 | 0 | 4.0 | 9.0 | 0.00 | 0.00 | 0.00 | 68 | 1019.3 |
| 20260906174016 | 70 | 0 | 3.0 | 9.0 | 0.00 | 0.00 | 0.00 | 68 | 1019.4 |
| 20260906173516 | 70 | 0 | 5.0 | 12.0 | 0.00 | 0.00 | 0.00 | 65 | 1019.4 |
| 20260906173036 | 71 | 0 | 6.0 | 11.0 | 0.00 | 0.00 | 0.00 | 63 | 1019.5 |
| 20260906172516 | 72 | 0 | 5.0 | 13.0 | 0.00 | 0.00 | 0.00 | 66 | 1019.5 |
| 20260906172016 | 71 | 45 | 4.0 | 12.0 | 0.00 | 0.00 | 0.00 | 65 | 1019.5 |
| 20260906171516 | 71 | 0 | 3.0 | 7.0 | 0.00 | 0.00 | 0.00 | 66 | 1019.4 |
| 20260906171016 | 72 | 0 | 6.0 | 11.0 | 0.00 | 0.00 | 0.00 | 68 | 1019.5 |
| 20260906170516 | 72 | 0 | 5.0 | 12.0 | 0.00 | 0.00 | 0.00 | 65 | 1019.5 |
| 20260906170036 | 72 | 0 | 4.0 | 8.0 | 0.00 | 0.00 | 0.00 | 68 | 1019.4 |
| 20260906165516 | 71 | 0 | 5.0 | 11.0 | 0.00 | 0.00 | 0.00 | 68 | 1019.4 |
| 20260906165016 | 71 | 90 | 6.0 | 11.0 | 0.00 | 0.00 | 0.00 | 70 | 1019.4 |
| 20260906164516 | 71 | 45 | 5.0 | 11.0 | 0.00 | 0.00 | 0.00 | 69 | 1019.5 |
| 20260906164016 | 72 | 0 | 4.0 | 9.0 | 0.00 | 0.00 | 0.00 | 70 | 1019.4 |
| 20260906163516 | 71 | 0 | 4.0 | 10.0 | 0.00 | 0.00 | 0.00 | 69 | 1019.4 |
| 20260906163016 | 72 | 0 | 4.0 | 12.0 | 0.00 | 0.00 | 0.00 | 71 | 1019.4 |
| 20260906162516 | 71 | 0 | 3.0 | 9.0 | 0.00 | 0.00 | 0.00 | 69 | 1019.4 |
| 20260906162016 | 72 | 0 | 4.0 | 9.0 | 0.00 | 0.00 | 0.00 | 68 | 1019.4 |
| 20260906161516 | 72 | 0 | 3.0 | 8.0 | 0.00 | 0.00 | 0.00 | 71 | 1019.3 |
| 20260906161036 | 72 | 0 | 4.0 | 9.0 | 0.00 | 0.00 | 0.00 | 68 | 1019.4 |
| 20260906160536 | 72 | 0 | 5.0 | 10.0 | 0.00 | 0.00 | 0.00 | 68 | 1019.5 |
| 20260906160016 | 72 | 0 | 4.0 | 11.0 | 0.00 | 0.00 | 0.00 | 70 | 1019.4 |
| 20260906155516 | 72 | 0 | 6.0 | 12.0 | 0.00 | 0.00 | 0.00 | 69 | 1019.3 |
| 20260906155015 | 72 | 0 | 5.0 | 14.0 | 0.00 | 0.00 | 0.00 | 70 | 1019.2 |
| 20260906154516 | 71 | 0 | 8.0 | 14.0 | 0.00 | 0.00 | 0.00 | 70 | 1019.3 |
| 20260906154015 | 72 | 0 | 5.0 | 10.0 | 0.00 | 0.00 | 0.00 | 71 | 1019.3 |
| 20260906153516 | 72 | 0 | 4.0 | 10.0 | 0.00 | 0.00 | 0.00 | 73 | 1019.2 |
| 20260906153038 | 71 | 0 | 4.0 | 10.0 | 0.00 | 0.00 | 0.00 | 71 | 1019.1 |
| 20260906152516 | 71 | 0 | 5.0 | 10.0 | 0.00 | 0.00 | 0.00 | 73 | 1019.1 |
| 20260906152017 | 71 | 0 | 3.0 | 8.0 | 0.00 | 0.00 | 0.00 | 73 | 1019.1 |
| 20260906151518 | 71 | 0 | 4.0 | 10.0 | 0.00 | 0.00 | 0.00 | 72 | 1019.1 |
| 20260906151018 | 71 | 0 | 5.0 | 9.0 | 0.00 | 0.00 | 0.00 | 73 | 1019.2 |
| 20260906150517 | 71 | 0 | 5.0 | 12.0 | 0.00 | 0.00 | 0.00 | 73 | 1019.2 |
| 20260906150018 | 70 | 0 | 4.0 | 10.0 | 0.00 | 0.00 | 0.00 | 76 | 1019.1 |
| 20260906145518 | 70 | 0 | 4.0 | 10.0 | 0.00 | 0.00 | 0.00 | 75 | 1019.1 |
| 20260906145017 | 70 | 0 | 5.0 | 10.0 | 0.00 | 0.00 | 0.00 | 75 | 1019.0 |
| 20260906144518 | 70 | 0 | 5.0 | 11.0 | 0.00 | 0.00 | 0.00 | 74 | 1019.0 |
| 20260906144018 | 71 | 0 | 5.0 | 12.0 | 0.00 | 0.00 | 0.00 | 74 | 1019.0 |
| 20260906143518 | 71 | 0 | 2.0 | 6.0 | 0.00 | 0.00 | 0.00 | 75 | 1019.0 |
| 20260906143018 | 71 | 23 | 3.0 | 8.0 | 0.00 | 0.00 | 0.00 | 75 | 1019.0 |
| 20260906142518 | 71 | 0 | 3.0 | 9.0 | 0.00 | 0.00 | 0.00 | 76 | 1019.1 |
| 20260906142018 | 69 | 23 | 3.0 | 10.0 | 0.00 | 0.00 | 0.00 | 79 | 1019.0 |
| 20260906141517 | 68 | 0 | 4.0 | 9.0 | 0.00 | 0.00 | 0.00 | 80 | 1018.8 |
| 20260906141018 | 68 | 0 | 3.0 | 9.0 | 0.00 | 0.00 | 0.00 | 80 | 1018.9 |
| 20260906140518 | 68 | 0 | 4.0 | 7.0 | 0.00 | 0.00 | 0.00 | 81 | 1018.8 |
| 20260906140017 | 68 | 0 | 3.0 | 8.0 | 0.00 | 0.00 | 0.00 | 83 | 1018.7 |
| 20260906135518 | 68 | 0 | 2.0 | 5.0 | 0.00 | 0.00 | 0.00 | 84 | 1018.7 |
| 20260906135018 | 68 | 0 | 3.0 | 8.0 | 0.00 | 0.00 | 0.00 | 85 | 1018.6 |
| 20260906134518 | 67 | 0 | 2.0 | 6.0 | 0.00 | 0.00 | 0.00 | 86 | 1018.6 |
| 20260906134017 | 67 | 0 | 3.0 | 6.0 | 0.00 | 0.00 | 0.00 | 85 | 1018.6 |
| 20260906133518 | 67 | 0 | 2.0 | 5.0 | 0.00 | 0.00 | 0.00 | 85 | 1018.6 |
| 20260906133017 | 67 | 23 | 2.0 | 5.0 | 0.00 | 0.00 | 0.00 | 86 | 1018.6 |
| 20260906132517 | 67 | 0 | 3.0 | 9.0 | 0.00 | 0.00 | 0.00 | 87 | 1018.6 |
| 20260906132038 | 66 | 0 | 3.0 | 8.0 | 0.00 | 0.00 | 0.00 | 87 | 1018.6 |
| 20260906131517 | 66 | 0 | 3.0 | 8.0 | 0.00 | 0.00 | 0.00 | 88 | 1018.5 |
| 20260906131017 | 66 | 0 | 3.0 | 9.0 | 0.00 | 0.00 | 0.00 | 88 | 1018.4 |
| 20260906130517 | 66 | 45 | 3.0 | 6.0 | 0.00 | 0.00 | 0.00 | 89 | 1018.5 |
| 20260906130017 | 66 | 0 | 3.0 | 8.0 | 0.00 | 0.00 | 0.00 | 90 | 1018.5 |
| 20260906125517 | 66 | 45 | 3.0 | 9.0 | 0.00 | 0.00 | 0.00 | 91 | 1018.5 |
| 20260906125017 | 66 | 45 | 3.0 | 8.0 | 0.00 | 0.00 | 0.00 | 92 | 1018.5 |
| 20260906124517 | 66 | 0 | 4.0 | 10.0 | 0.00 | 0.00 | 0.00 | 93 | 1018.3 |
| 20260906124017 | 66 | 0 | 5.0 | 11.0 | 0.00 | 0.00 | 0.00 | 94 | 1018.3 |
| 20260906123517 | 65 | 0 | 7.0 | 13.0 | 0.00 | 0.00 | 0.00 | 94 | 1018.4 |
| 20260906123017 | 65 | 45 | 3.0 | 6.0 | 0.00 | 0.00 | 0.00 | 95 | 1018.4 |
| 20260906122517 | 64 | 45 | 2.0 | 6.0 | 0.00 | 0.00 | 0.00 | 95 | 1018.2 |
| 20260906122017 | 64 | 23 | 2.0 | 9.0 | 0.00 | 0.00 | 0.00 | 96 | 1018.2 |
| 20260906121517 | 62 | 0 | 1.0 | 4.0 | 0.00 | 0.00 | 0.00 | 96 | 1018.2 |
| 20260906121057 | 60 | 0.0 | 2.0 | 0.00 | 0.00 | 0.00 | 95 | 1018.2 | |
| 20260906120517 | 60 | 0.0 | 0.0 | 0.00 | 0.00 | 0.00 | 95 | 1018.1 | |
| 20260906120017 | 59 | 0.0 | 0.0 | 0.00 | 0.00 | 0.00 | 94 | 1017.9 | |
| 20260906115517 | 59 | 0.0 | 0.0 | 0.00 | 0.00 | 0.00 | 94 | 1017.8 | |
| 20260906115037 | 59 | 0.0 | 0.0 | 0.00 | 0.00 | 0.00 | 94 | 1017.7 | |
| 20260906114517 | 59 | 0.0 | 0.0 | 0.00 | 0.00 | 0.00 | 94 | 1017.7 | |
| 20260906114017 | 59 | 0.0 | 0.0 | 0.00 | 0.00 | 0.00 | 94 | 1017.6 | |
| 20260906113517 | 59 | 0.0 | 0.0 | 0.00 | 0.00 | 0.00 | 94 | 1017.6 | |
| 20260906113017 | 59 | 0.0 | 0.0 | 0.00 | 0.00 | 0.00 | 94 | 1017.6 | |
| 20260906112517 | 59 | 0.0 | 0.0 | 0.00 | 0.00 | 0.00 | 94 | 1017.6 | |
| 20260906112017 | 59 | 0.0 | 0.0 | 0.00 | 0.00 | 0.00 | 93 | 1017.7 | |
| 20260906111517 | 59 | 0.0 | 1.0 | 0.00 | 0.00 | 0.00 | 93 | 1017.5 | |
| 20260906111017 | 59 | 0.0 | 0.0 | 0.00 | 0.00 | 0.00 | 93 | 1017.5 | |
| 20260906110517 | 59 | 0.0 | 0.0 | 0.00 | 0.00 | 0.00 | 93 | 1017.4 | |
| 20260906110017 | 59 | 0.0 | 0.0 | 0.00 | 0.00 | 0.00 | 93 | 1017.4 | |
| 20260906105537 | 59 | 0.0 | 0.0 | 0.00 | 0.00 | 0.00 | 93 | 1017.4 | |
| 20260906105017 | 59 | 0.0 | 0.0 | 0.00 | 0.00 | 0.00 | 93 | 1017.4 | |
| 20260906104517 | 59 | 0.0 | 0.0 | 0.00 | 0.00 | 0.00 | 93 | 1017.3 | |
| 20260906104017 | 59 | 0.0 | 1.0 | 0.00 | 0.00 | 0.00 | 93 | 1017.2 | |
| 20260906103517 | 59 | 0.0 | 0.0 | 0.00 | 0.00 | 0.00 | 93 | 1017.2 | |
| 20260906103037 | 59 | 0.0 | 0.0 | 0.00 | 0.00 | 0.00 | 93 | 1017.2 | |
| 20260906102517 | 59 | 0.0 | 0.0 | 0.00 | 0.00 | 0.00 | 93 | 1017.1 | |
| 20260906102017 | 59 | 0.0 | 0.0 | 0.00 | 0.00 | 0.00 | 93 | 1017.1 | |
| 20260906101517 | 59 | 0.0 | 0.0 | 0.00 | 0.00 | 0.00 | 93 | 1017.0 | |
| 20260906101017 | 59 | 0.0 | 0.0 | 0.00 | 0.00 | 0.00 | 93 | 1017.1 | |
| 20260906100517 | 59 | 0.0 | 0.0 | 0.00 | 0.00 | 0.00 | 93 | 1017.0 | |
| 20260906100017 | 59 | 0.0 | 0.0 | 0.00 | 0.00 | 0.00 | 93 | 1016.9 | |
| 20260906095517 | 59 | 0.0 | 0.0 | 0.00 | 0.00 | 0.00 | 93 | 1016.9 | |
| 20260906095017 | 59 | 0.0 | 0.0 | 0.00 | 0.00 | 0.00 | 93 | 1016.9 | |
| 20260906094517 | 59 | 0.0 | 0.0 | 0.00 | 0.00 | 0.00 | 92 | 1016.9 | |
| 20260906094017 | 59 | 0.0 | 0.0 | 0.00 | 0.00 | 0.00 | 92 | 1016.9 | |
| 20260906093517 | 59 | 0.0 | 0.0 | 0.00 | 0.00 | 0.00 | 92 | 1016.9 | |
| 20260906093037 | 59 | 0.0 | 0.0 | 0.00 | 0.00 | 0.00 | 92 | 1016.8 | |
| 20260906092517 | 59 | 0.0 | 0.0 | 0.00 | 0.00 | 0.00 | 92 | 1016.9 | |
| 20260906092017 | 60 | 0.0 | 0.0 | 0.00 | 0.00 | 0.00 | 92 | 1016.7 | |
| 20260906091517 | 60 | 0.0 | 0.0 | 0.00 | 0.00 | 0.00 | 92 | 1016.6 | |
| 20260906091017 | 60 | 0.0 | 0.0 | 0.00 | 0.00 | 0.00 | 93 | 1016.5 | |
| 20260906090517 | 60 | 0.0 | 0.0 | 0.00 | 0.00 | 0.00 | 93 | 1016.6 | |
| 20260906090017 | 60 | 0.0 | 0.0 | 0.00 | 0.00 | 0.00 | 92 | 1016.4 | |
| 20260906085517 | 60 | 0.0 | 0.0 | 0.00 | 0.00 | 0.00 | 93 | 1016.3 | |
| 20260906085017 | 61 | 0.0 | 0.0 | 0.00 | 0.00 | 0.00 | 93 | 1016.1 | |
| 20260906084517 | 61 | 0.0 | 0.0 | 0.00 | 0.00 | 0.00 | 93 | 1016.0 | |
| 20260906084037 | 61 | 0.0 | 0.0 | 0.00 | 0.00 | 0.00 | 93 | 1016.1 | |
| 20260906083517 | 61 | 0.0 | 0.0 | 0.00 | 0.00 | 0.00 | 93 | 1016.1 | |
| 20260906083017 | 61 | 0.0 | 0.0 | 0.00 | 0.00 | 0.00 | 93 | 1016.0 | |
| 20260906082517 | 61 | 0.0 | 0.0 | 0.00 | 0.00 | 0.00 | 93 | 1016.0 | |
| 20260906082017 | 61 | 0.0 | 0.0 | 0.00 | 0.00 | 0.00 | 93 | 1016.0 | |
| 20260906081517 | 61 | 0.0 | 0.0 | 0.00 | 0.00 | 0.00 | 93 | 1015.9 | |
| 20260906081017 | 61 | 0.0 | 0.0 | 0.00 | 0.00 | 0.00 | 93 | 1016.0 | |
| 20260906080517 | 62 | 0.0 | 0.0 | 0.00 | 0.00 | 0.00 | 93 | 1016.0 | |
| 20260906080017 | 62 | 0.0 | 0.0 | 0.00 | 0.00 | 0.00 | 93 | 1015.9 | |
| 20260906075557 | 62 | 0.0 | 0.0 | 0.00 | 0.00 | 0.00 | 93 | 1016.0 | |
| 20260906075017 | 62 | 0.0 | 0.0 | 0.00 | 0.00 | 0.00 | 93 | 1016.0 | |
| 20260906074517 | 62 | 0.0 | 1.0 | 0.00 | 0.00 | 0.00 | 93 | 1016.0 | |
| 20260906074017 | 62 | 0.0 | 1.0 | 0.00 | 0.00 | 0.00 | 93 | 1015.9 | |
| 20260906073537 | 62 | 0.0 | 1.0 | 0.00 | 0.00 | 0.00 | 93 | 1015.8 | |
| 20260906073017 | 62 | 0.0 | 0.0 | 0.00 | 0.00 | 0.00 | 93 | 1015.8 | |
| 20260906072517 | 62 | 0.0 | 0.0 | 0.00 | 0.00 | 0.00 | 93 | 1015.8 | |
| 20260906072017 | 62 | 0.0 | 0.0 | 0.00 | 0.00 | 0.00 | 93 | 1015.9 | |
| 20260906071517 | 62 | 0.0 | 0.0 | 0.00 | 0.00 | 0.00 | 93 | 1015.8 | |
| 20260906071017 | 62 | 0.0 | 0.0 | 0.00 | 0.00 | 0.00 | 93 | 1015.8 | |
| 20260906070517 | 63 | 0.0 | 0.0 | 0.00 | 0.00 | 0.00 | 93 | 1015.8 | |
| 20260906070017 | 63 | 0.0 | 0.0 | 0.00 | 0.00 | 0.00 | 93 | 1015.8 | |
| 20260906065517 | 63 | 0.0 | 0.0 | 0.00 | 0.00 | 0.00 | 93 | 1016.0 | |
| 20260906065017 | 63 | 0.0 | 0.0 | 0.00 | 0.00 | 0.00 | 93 | 1016.0 | |
| 20260906064517 | 63 | 0.0 | 0.0 | 0.00 | 0.00 | 0.00 | 93 | 1016.0 | |
| 20260906064017 | 63 | 0.0 | 0.0 | 0.00 | 0.00 | 0.00 | 93 | 1016.1 | |
| 20260906063517 | 63 | 0.0 | 1.0 | 0.00 | 0.00 | 0.00 | 93 | 1016.0 | |
| 20260906063017 | 63 | 0.0 | 1.0 | 0.00 | 0.00 | 0.00 | 93 | 1016.1 | |
| 20260906062517 | 63 | 0.0 | 1.0 | 0.00 | 0.00 | 0.00 | 93 | 1016.0 | |
| 20260906062017 | 63 | 0.0 | 1.0 | 0.00 | 0.00 | 0.00 | 93 | 1015.9 | |
| 20260906061517 | 63 | 0.0 | 0.0 | 0.00 | 0.00 | 0.00 | 93 | 1015.9 | |
| 20260906061017 | 63 | 0.0 | 0.0 | 0.00 | 0.00 | 0.00 | 92 | 1016.0 | |
| 20260906060537 | 63 | 0.0 | 0.0 | 0.00 | 0.00 | 0.00 | 92 | 1016.0 | |
| 20260906060017 | 63 | 0.0 | 0.0 | 0.00 | 0.00 | 0.00 | 92 | 1015.9 | |
| 20260906055517 | 63 | 0.0 | 0.0 | 0.00 | 0.00 | 0.00 | 92 | 1015.8 | |
| 20260906055017 | 63 | 0.0 | 0.0 | 0.00 | 0.00 | 0.00 | 92 | 1015.9 | |
| 20260906054516 | 62 | 0.0 | 0.0 | 0.00 | 0.00 | 0.00 | 92 | 1015.9 | |
| 20260906054017 | 62 | 0.0 | 0.0 | 0.00 | 0.00 | 0.00 | 92 | 1015.9 | |
| 20260906053517 | 62 | 0.0 | 0.0 | 0.00 | 0.00 | 0.00 | 92 | 1016.0 | |
| 20260906053017 | 62 | 0.0 | 0.0 | 0.00 | 0.00 | 0.00 | 92 | 1016.0 | |
| 20260906052517 | 62 | 0.0 | 0.0 | 0.00 | 0.00 | 0.00 | 92 | 1015.9 | |
| 20260906052017 | 62 | 0.0 | 1.0 | 0.00 | 0.00 | 0.00 | 91 | 1016.0 | |
| 20260906051517 | 62 | 0.0 | 0.0 | 0.00 | 0.00 | 0.00 | 91 | 1016.0 | |
| 20260906051016 | 62 | 0.0 | 1.0 | 0.00 | 0.00 | 0.00 | 91 | 1016.0 | |
| 20260906050517 | 62 | 0.0 | 1.0 | 0.00 | 0.00 | 0.00 | 91 | 1016.1 | |
| 20260906050016 | 62 | 0.0 | 2.0 | 0.00 | 0.00 | 0.00 | 91 | 1016.0 | |
| 20260906045517 | 63 | 0.0 | 2.0 | 0.00 | 0.00 | 0.00 | 91 | 1016.0 | |
| 20260906045017 | 62 | 0.0 | 0.0 | 0.00 | 0.00 | 0.00 | 91 | 1015.8 | |
| 20260906044537 | 62 | 0.0 | 0.0 | 0.00 | 0.00 | 0.00 | 90 | 1015.8 | |
| 20260906044017 | 62 | 0.0 | 0.0 | 0.00 | 0.00 | 0.00 | 90 | 1015.9 | |
| 20260906043517 | 62 | 0.0 | 0.0 | 0.00 | 0.00 | 0.00 | 90 | 1015.8 | |
| 20260906043016 | 63 | 0.0 | 0.0 | 0.00 | 0.00 | 0.00 | 90 | 1015.7 | |
| 20260906042517 | 63 | 0.0 | 0.0 | 0.00 | 0.00 | 0.00 | 90 | 1015.7 | |
| 20260906042017 | 63 | 0.0 | 0.0 | 0.00 | 0.00 | 0.00 | 90 | 1015.8 | |
| 20260906041537 | 63 | 0.0 | 0.0 | 0.00 | 0.00 | 0.00 | 90 | 1015.8 | |
| 20260906041017 | 63 | 0.0 | 0.0 | 0.00 | 0.00 | 0.00 | 90 | 1015.7 | |
| 20260906040537 | 63 | 0.0 | 0.0 | 0.00 | 0.00 | 0.00 | 90 | 1015.7 | |
| 20260906040016 | 63 | 0.0 | 0.0 | 0.00 | 0.00 | 0.00 | 90 | 1015.7 | |
| 20260906035516 | 63 | 0.0 | 0.0 | 0.00 | 0.00 | 0.00 | 89 | 1015.6 | |
| 20260906035036 | 63 | 0.0 | 0.0 | 0.00 | 0.00 | 0.00 | 89 | 1015.7 | |
| 20260906034536 | 63 | 0.0 | 0.0 | 0.00 | 0.00 | 0.00 | 89 | 1015.6 | |
| 20260906034016 | 63 | 0.0 | 0.0 | 0.00 | 0.00 | 0.00 | 89 | 1015.5 | |
| 20260906033516 | 63 | 0.0 | 0.0 | 0.00 | 0.00 | 0.00 | 89 | 1015.6 | |
| 20260906033016 | 63 | 0.0 | 0.0 | 0.00 | 0.00 | 0.00 | 89 | 1015.6 | |
| 20260906032516 | 63 | 0.0 | 0.0 | 0.00 | 0.00 | 0.00 | 88 | 1015.5 | |
| 20260906032036 | 63 | 0.0 | 0.0 | 0.00 | 0.00 | 0.00 | 88 | 1015.5 | |
| 20260906031516 | 64 | 0.0 | 0.0 | 0.00 | 0.00 | 0.00 | 88 | 1015.6 | |
| 20260906031016 | 64 | 0.0 | 0.0 | 0.00 | 0.00 | 0.00 | 88 | 1015.5 | |
| 20260906030516 | 64 | 0.0 | 0.0 | 0.00 | 0.00 | 0.00 | 88 | 1015.5 | |
| 20260906030015 | 64 | 0.0 | 0.0 | 0.00 | 0.00 | 0.00 | 88 | 1015.5 | |
| 20260906025516 | 64 | 0.0 | 0.0 | 0.00 | 0.00 | 0.00 | 88 | 1015.3 | |
| 20260906025016 | 64 | 0.0 | 0.0 | 0.00 | 0.00 | 0.00 | 87 | 1015.4 | |
| 20260906024517 | 64 | 0.0 | 0.0 | 0.00 | 0.00 | 0.00 | 87 | 1015.5 | |
| 20260906024018 | 64 | 0.0 | 0.0 | 0.00 | 0.00 | 0.00 | 87 | 1015.3 | |
| 20260906023518 | 64 | 0.0 | 0.0 | 0.00 | 0.00 | 0.00 | 87 | 1015.3 | |
| 20260906023018 | 64 | 0.0 | 0.0 | 0.00 | 0.00 | 0.00 | 86 | 1015.3 | |
| 20260906022518 | 64 | 0.0 | 0.0 | 0.00 | 0.00 | 0.00 | 86 | 1015.2 | |
| 20260906022018 | 65 | 0.0 | 0.0 | 0.00 | 0.00 | 0.00 | 86 | 1015.1 | |
| 20260906021518 | 65 | 0.0 | 1.0 | 0.00 | 0.00 | 0.00 | 86 | 1015.3 | |
| 20260906021018 | 65 | 0.0 | 1.0 | 0.00 | 0.00 | 0.00 | 85 | 1015.3 | |
| 20260906020518 | 65 | 0.0 | 0.0 | 0.00 | 0.00 | 0.00 | 85 | 1015.1 | |
| 20260906020058 | 65 | 0.0 | 0.0 | 0.00 | 0.00 | 0.00 | 85 | 1014.9 | |
| 20260906015518 | 66 | 0.0 | 0.0 | 0.00 | 0.00 | 0.00 | 85 | 1015.0 | |
| 20260906015017 | 66 | 0.0 | 0.0 | 0.00 | 0.00 | 0.00 | 84 | 1015.2 | |
| 20260906014518 | 66 | 0.0 | 0.0 | 0.00 | 0.00 | 0.00 | 84 | 1015.0 | |
| 20260906014018 | 66 | 0.0 | 0.0 | 0.00 | 0.00 | 0.00 | 84 | 1015.0 | |
| 20260906013518 | 66 | 0.0 | 0.0 | 0.00 | 0.00 | 0.00 | 84 | 1015.0 | |
| 20260906013018 | 67 | 0.0 | 0.0 | 0.00 | 0.00 | 0.00 | 84 | 1015.0 | |
| 20260906012538 | 67 | 0.0 | 0.0 | 0.00 | 0.00 | 0.00 | 84 | 1015.0 | |
| 20260906012037 | 67 | 0.0 | 0.0 | 0.00 | 0.00 | 0.00 | 84 | 1014.9 | |
| 20260906011518 | 67 | 0.0 | 0.0 | 0.00 | 0.00 | 0.00 | 83 | 1014.9 | |
| 20260906011018 | 67 | 0.0 | 0.0 | 0.00 | 0.00 | 0.00 | 83 | 1015.0 | |
| 20260906010518 | 67 | 0.0 | 0.0 | 0.00 | 0.00 | 0.00 | 83 | 1014.9 | |
| 20260906010017 | 67 | 90 | 1.0 | 2.0 | 0.00 | 0.00 | 0.00 | 83 | 1014.9 |
| 20260906005517 | 67 | 45 | 1.0 | 2.0 | 0.00 | 0.00 | 0.00 | 82 | 1014.9 |
| 20260906005017 | 68 | 0.0 | 0.0 | 0.00 | 0.00 | 0.00 | 82 | 1014.9 | |
| 20260906004518 | 68 | 0.0 | 0.0 | 0.00 | 0.00 | 0.00 | 81 | 1014.8 | |
| 20260906004037 | 68 | 0.0 | 0.0 | 0.00 | 0.00 | 0.00 | 81 | 1014.7 | |
| 20260906003518 | 68 | 0.0 | 2.0 | 0.00 | 0.00 | 0.00 | 81 | 1014.6 | |
| 20260906003018 | 68 | 0.0 | 1.0 | 0.00 | 0.00 | 0.00 | 80 | 1014.7 | |
| 20260906002517 | 68 | 0.0 | 0.0 | 0.00 | 0.00 | 0.00 | 80 | 1014.6 | |
| 20260906002037 | 68 | 0.0 | 1.0 | 0.00 | 0.00 | 0.00 | 79 | 1014.6 | |
| 20260906001518 | 69 | 0.0 | 2.0 | 0.00 | 0.00 | 0.00 | 79 | 1014.6 | |
| 20260906001017 | 69 | 0.0 | 1.0 | 0.00 | 0.00 | 0.00 | 78 | 1014.7 | |
| 20260906000517 | 69 | 0.0 | 1.0 | 0.00 | 0.00 | 0.00 | 78 | 1014.7 | |
| 20260906000017 | 69 | 0.0 | 1.0 | 0.00 | 0.00 | 0.00 | 77 | 1014.8 | |
| 20260905235517 | 69 | 0.0 | 2.0 | 0.00 | 0.00 | 0.00 | 77 | 1014.8 | |
| 20260905235017 | 70 | 0.0 | 2.0 | 0.00 | 0.00 | 0.00 | 77 | 1014.7 | |
| 20260905234518 | 70 | 0.0 | 2.0 | 0.00 | 0.00 | 0.00 | 76 | 1014.8 | |
| 20260905234017 | 70 | 0.0 | 2.0 | 0.00 | 0.00 | 0.00 | 76 | 1014.7 | |
| 20260905233537 | 70 | 0 | 1.0 | 2.0 | 0.00 | 0.00 | 0.00 | 76 | 1014.7 |
| 20260905233017 | 70 | 0 | 1.0 | 3.0 | 0.00 | 0.00 | 0.00 | 76 | 1014.8 |
| 20260905232517 | 70 | 0 | 1.0 | 3.0 | 0.00 | 0.00 | 0.00 | 76 | 1014.8 |
| 20260905232017 | 70 | 0 | 1.0 | 2.0 | 0.00 | 0.00 | 0.00 | 75 | 1014.8 |
| 20260905231518 | 71 | 0 | 1.0 | 4.0 | 0.00 | 0.00 | 0.00 | 76 | 1014.8 |
| 20260905231017 | 71 | 0 | 2.0 | 4.0 | 0.00 | 0.00 | 0.00 | 75 | 1014.7 |
| 20260905230517 | 71 | 0 | 1.0 | 5.0 | 0.00 | 0.00 | 0.00 | 75 | 1014.7 |
| 20260905230017 | 71 | 0 | 1.0 | 2.0 | 0.00 | 0.00 | 0.00 | 75 | 1014.9 |
| 20260905225517 | 71 | 23 | 1.0 | 3.0 | 0.00 | 0.00 | 0.00 | 74 | 1014.9 |
| 20260905225017 | 72 | 0 | 3.0 | 6.0 | 0.00 | 0.00 | 0.00 | 74 | 1014.8 |
| 20260905224517 | 72 | 0 | 3.0 | 6.0 | 0.00 | 0.00 | 0.00 | 74 | 1014.8 |
| 20260905224017 | 72 | 0 | 2.0 | 6.0 | 0.00 | 0.00 | 0.00 | 73 | 1014.7 |
| 20260905223517 | 72 | 0 | 3.0 | 8.0 | 0.00 | 0.00 | 0.00 | 73 | 1014.8 |
| 20260905223017 | 72 | 0 | 3.0 | 5.0 | 0.00 | 0.00 | 0.00 | 72 | 1014.8 |
| 20260905222517 | 72 | 0 | 2.0 | 6.0 | 0.00 | 0.00 | 0.00 | 72 | 1014.7 |
| 20260905222017 | 72 | 0 | 2.0 | 4.0 | 0.00 | 0.00 | 0.00 | 73 | 1014.6 |
| 20260905221517 | 72 | 0 | 3.0 | 8.0 | 0.00 | 0.00 | 0.00 | 72 | 1014.6 |
| 20260905221017 | 73 | 0 | 2.0 | 5.0 | 0.00 | 0.00 | 0.00 | 71 | 1014.7 |
| 20260905220517 | 73 | 0 | 3.0 | 8.0 | 0.00 | 0.00 | 0.00 | 71 | 1014.6 |
| 20260905220017 | 73 | 0 | 3.0 | 9.0 | 0.00 | 0.00 | 0.00 | 71 | 1014.6 |
| 20260905215517 | 73 | 0 | 4.0 | 8.0 | 0.00 | 0.00 | 0.00 | 70 | 1014.5 |
| 20260905215037 | 74 | 0 | 3.0 | 7.0 | 0.00 | 0.00 | 0.00 | 70 | 1014.3 |
| 20260905214517 | 74 | 0 | 3.0 | 9.0 | 0.00 | 0.00 | 0.00 | 69 | 1014.4 |
| 20260905214017 | 74 | 0 | 3.0 | 7.0 | 0.00 | 0.00 | 0.00 | 69 | 1014.3 |
| 20260905213517 | 74 | 0 | 3.0 | 9.0 | 0.00 | 0.00 | 0.00 | 68 | 1014.3 |
| 20260905213017 | 75 | 0 | 4.0 | 7.0 | 0.00 | 0.00 | 0.00 | 68 | 1014.3 |
| 20260905212517 | 74 | 0 | 3.0 | 5.0 | 0.00 | 0.00 | 0.00 | 69 | 1014.3 |
| 20260905212017 | 75 | 0 | 3.0 | 8.0 | 0.00 | 0.00 | 0.00 | 67 | 1014.2 |
| 20260905211517 | 75 | 0 | 4.0 | 10.0 | 0.00 | 0.00 | 0.00 | 66 | 1014.1 |
| 20260905211017 | 75 | 0 | 3.0 | 7.0 | 0.00 | 0.00 | 0.00 | 65 | 1014.2 |
| 20260905210517 | 75 | 0 | 3.0 | 6.0 | 0.00 | 0.00 | 0.00 | 66 | 1014.2 |